createdAt,value
2023-01-06T00:00:00.224Z,9.0
2023-01-06T00:05:00.192Z,9.1
2023-01-06T00:10:00.236Z,9.1
2023-01-06T00:15:00.207Z,9.0
2023-01-06T00:20:00.201Z,9.0
2023-01-06T00:25:00.207Z,8.9
2023-01-06T00:30:00.198Z,8.9
2023-01-06T00:35:00.279Z,9.0
2023-01-06T00:40:00.219Z,9.0
2023-01-06T00:45:00.194Z,8.8
2023-01-06T00:50:00.202Z,8.8
2023-01-06T00:55:00.203Z,8.8
2023-01-06T01:00:00.302Z,9.0
2023-01-06T01:05:00.222Z,9.1
2023-01-06T01:10:00.197Z,9.0
2023-01-06T01:15:00.192Z,9.0
2023-01-06T01:20:00.222Z,9.0
2023-01-06T01:25:00.222Z,9.1
2023-01-06T01:30:00.222Z,8.9
2023-01-06T01:35:00.236Z,8.8
2023-01-06T01:40:00.210Z,8.9
2023-01-06T01:45:00.227Z,8.8
2023-01-06T01:50:00.203Z,8.9
2023-01-06T01:55:00.197Z,8.7
2023-01-06T02:00:00.239Z,8.7
2023-01-06T02:05:00.238Z,8.6
2023-01-06T02:10:00.211Z,8.7
2023-01-06T02:15:00.232Z,8.6
2023-01-06T02:20:00.240Z,8.7
2023-01-06T02:25:00.209Z,8.7
2023-01-06T02:30:00.261Z,8.7
2023-01-06T02:35:00.253Z,8.7
2023-01-06T02:40:00.238Z,8.6
2023-01-06T02:45:00.216Z,8.5
2023-01-06T02:50:00.212Z,8.5
2023-01-06T02:55:00.211Z,8.5
2023-01-06T03:00:00.226Z,8.6
2023-01-06T03:05:00.229Z,8.6
2023-01-06T03:10:00.208Z,8.5
2023-01-06T03:15:00.236Z,8.5
2023-01-06T03:20:00.266Z,8.4
2023-01-06T03:25:00.238Z,8.4
2023-01-06T03:30:00.254Z,8.4
2023-01-06T03:35:00.217Z,8.3
2023-01-06T03:40:00.202Z,8.5
2023-01-06T03:45:00.213Z,8.3
2023-01-06T03:50:00.195Z,8.2
2023-01-06T03:55:00.245Z,8.5
2023-01-06T04:00:00.219Z,8.3
2023-01-06T04:05:00.208Z,8.3
2023-01-06T04:10:00.238Z,8.2
2023-01-06T04:15:00.264Z,8.2
2023-01-06T04:20:00.201Z,8.3
2023-01-06T04:25:00.208Z,8.3
2023-01-06T04:30:00.213Z,8.2
2023-01-06T04:35:00.209Z,8.0
2023-01-06T04:40:00.225Z,8.1
2023-01-06T04:45:00.204Z,8.1
2023-01-06T04:50:00.267Z,8.1
2023-01-06T04:55:00.218Z,8.2
2023-01-06T05:00:00.204Z,8.1
2023-01-06T05:05:00.216Z,8.0
2023-01-06T05:10:00.286Z,8.2
2023-01-06T05:15:00.215Z,8.2
2023-01-06T05:20:00.207Z,8.2
2023-01-06T05:25:00.197Z,8.2
2023-01-06T05:30:00.219Z,8.2
2023-01-06T05:35:00.206Z,8.2
2023-01-06T05:40:00.191Z,8.1
2023-01-06T05:45:00.214Z,8.2
2023-01-06T05:50:00.225Z,8.2
2023-01-06T05:55:00.208Z,8.1
2023-01-06T06:00:00.356Z,8.3
2023-01-06T06:05:00.199Z,8.3
2023-01-06T06:10:00.205Z,8.4
2023-01-06T06:15:00.228Z,8.3
2023-01-06T06:20:00.225Z,8.4
2023-01-06T06:25:00.212Z,8.4
2023-01-06T06:30:00.200Z,8.3
2023-01-06T06:35:00.194Z,8.5
2023-01-06T06:40:00.215Z,8.5
2023-01-06T06:45:00.207Z,8.4
2023-01-06T06:50:00.201Z,8.5
2023-01-06T06:55:00.202Z,8.5
2023-01-06T07:00:00.216Z,8.5
2023-01-06T07:05:00.213Z,8.5
2023-01-06T07:10:00.205Z,8.4
2023-01-06T07:15:00.267Z,8.5
2023-01-06T07:20:00.207Z,8.6
2023-01-06T07:25:00.459Z,8.7
2023-01-06T07:30:00.231Z,8.9
2023-01-06T07:35:00.198Z,8.9
2023-01-06T07:40:00.214Z,8.9
2023-01-06T07:45:00.206Z,8.9
2023-01-06T07:50:00.220Z,8.8
2023-01-06T07:55:00.201Z,8.9
2023-01-06T08:00:00.288Z,8.9
2023-01-06T08:05:00.542Z,8.9
2023-01-06T08:10:00.224Z,9.0
2023-01-06T08:15:00.210Z,9.0
2023-01-06T08:20:00.260Z,8.9
2023-01-06T08:25:00.206Z,9.0
2023-01-06T08:30:00.239Z,8.9
2023-01-06T08:35:00.232Z,8.7
2023-01-06T08:40:00.259Z,8.5
2023-01-06T08:45:00.223Z,8.5
2023-01-06T08:50:00.216Z,8.3
2023-01-06T08:55:00.205Z,8.3
2023-01-06T09:00:00.234Z,8.5
2023-01-06T09:05:00.311Z,8.5
2023-01-06T09:10:00.206Z,8.8
2023-01-06T09:15:00.191Z,8.7
2023-01-06T09:20:00.248Z,8.7
2023-01-06T09:25:00.214Z,8.8
2023-01-06T09:30:00.228Z,8.6
2023-01-06T09:35:00.216Z,8.5
2023-01-06T09:40:00.215Z,8.5
2023-01-06T09:45:00.229Z,8.5
2023-01-06T09:50:00.207Z,8.5
2023-01-06T09:55:00.234Z,8.5
2023-01-06T10:00:00.260Z,8.4
2023-01-06T10:05:00.214Z,8.5
2023-01-06T10:10:00.228Z,8.3
2023-01-06T10:15:00.225Z,8.2
2023-01-06T10:20:00.202Z,8.3
2023-01-06T10:25:00.203Z,8.1
2023-01-06T10:30:00.245Z,8.3
2023-01-06T10:35:00.212Z,8.0
2023-01-06T10:40:00.224Z,7.9
2023-01-06T10:45:00.204Z,7.9
2023-01-06T10:50:00.206Z,8.0
2023-01-06T10:55:00.215Z,7.8
2023-01-06T11:00:00.224Z,8.0
2023-01-06T11:05:00.220Z,7.7
2023-01-06T11:10:00.206Z,7.8
2023-01-06T11:15:00.327Z,7.8
2023-01-06T11:20:00.192Z,7.3
2023-01-06T11:25:00.205Z,7.3
2023-01-06T11:30:00.248Z,7.2
2023-01-06T11:35:00.231Z,7.4
2023-01-06T11:40:10.359Z,7.1
2023-01-06T11:45:00.206Z,7.1
2023-01-06T11:50:00.220Z,6.9
2023-01-06T11:55:00.241Z,7.1
2023-01-06T12:00:00.206Z,7.1
2023-01-06T12:05:00.208Z,7.0
2023-01-06T12:10:00.239Z,7.1
2023-01-06T12:15:01.395Z,7.0
2023-01-06T12:20:00.211Z,7.0
2023-01-06T12:25:00.207Z,7.0
2023-01-06T12:30:00.252Z,6.8
2023-01-06T12:35:00.217Z,6.8
2023-01-06T12:40:00.214Z,6.9
2023-01-06T12:45:00.223Z,6.9
2023-01-06T12:50:00.206Z,7.1
2023-01-06T12:55:00.248Z,7.2
2023-01-06T13:00:00.205Z,7.1
2023-01-06T13:05:00.227Z,6.9
2023-01-06T13:10:00.222Z,6.9
2023-01-06T13:15:00.250Z,6.9
2023-01-06T13:20:00.213Z,7.1
2023-01-06T13:25:00.195Z,6.9
2023-01-06T13:30:00.239Z,7.1
2023-01-06T13:35:00.210Z,7.0
2023-01-06T13:40:00.195Z,7.0
2023-01-06T13:45:00.205Z,6.9
2023-01-06T13:50:00.243Z,6.6
2023-01-06T13:55:00.259Z,6.8
2023-01-06T14:00:00.207Z,6.6
2023-01-06T14:05:00.206Z,6.6
2023-01-06T14:10:00.214Z,6.6
2023-01-06T14:15:00.211Z,6.6
2023-01-06T14:20:00.216Z,6.5
2023-01-06T14:25:00.203Z,6.5
2023-01-06T14:30:00.226Z,6.4
2023-01-06T14:35:00.216Z,6.3
2023-01-06T14:40:00.200Z,6.2
2023-01-06T14:45:00.209Z,6.1
2023-01-06T14:50:00.208Z,6.1
2023-01-06T14:55:00.199Z,5.8
2023-01-06T15:00:00.211Z,6.0
2023-01-06T15:05:00.214Z,5.9
2023-01-06T15:10:00.237Z,5.9
2023-01-06T15:15:00.513Z,5.8
2023-01-06T15:20:00.256Z,5.8
2023-01-06T15:25:00.210Z,5.8
2023-01-06T15:30:00.212Z,5.7
2023-01-06T15:35:00.223Z,5.7
2023-01-06T15:40:00.205Z,5.8
2023-01-06T15:45:00.226Z,5.7
2023-01-06T15:50:00.207Z,5.9
2023-01-06T15:55:00.208Z,5.8
2023-01-06T16:00:00.226Z,6.0
2023-01-06T16:05:00.278Z,5.9
2023-01-06T16:10:00.206Z,5.9
2023-01-06T16:15:00.215Z,5.9
2023-01-06T16:20:00.529Z,5.9
2023-01-06T16:25:00.209Z,6.1
2023-01-06T16:30:00.206Z,6.0
2023-01-06T16:35:00.218Z,6.1
2023-01-06T16:40:00.361Z,6.2
2023-01-06T16:45:00.214Z,6.1
2023-01-06T16:50:00.370Z,6.1
2023-01-06T16:55:00.222Z,6.1
2023-01-06T17:00:00.314Z,6.2
2023-01-06T17:05:00.332Z,6.2
2023-01-06T17:10:00.366Z,6.1
2023-01-06T17:15:00.209Z,5.9
2023-01-06T17:20:00.209Z,6.1
2023-01-06T17:25:00.248Z,6.1
2023-01-06T17:30:00.222Z,6.1
2023-01-06T17:35:00.226Z,6.0
2023-01-06T17:40:00.200Z,6.0
2023-01-06T17:45:00.216Z,6.1
2023-01-06T17:50:00.244Z,6.1
2023-01-06T17:55:00.231Z,6.2
2023-01-06T18:00:00.217Z,6.2
2023-01-06T18:05:00.217Z,6.3
2023-01-06T18:10:00.244Z,6.4
2023-01-06T18:15:00.192Z,6.5
2023-01-06T18:20:00.199Z,6.4
2023-01-06T18:25:00.204Z,6.4
2023-01-06T18:30:00.216Z,6.6
2023-01-06T18:35:00.193Z,6.6
2023-01-06T18:40:00.202Z,6.6
2023-01-06T18:45:00.236Z,6.6
2023-01-06T18:50:00.217Z,6.6
2023-01-06T18:55:00.201Z,6.8
2023-01-06T19:00:00.201Z,6.8
2023-01-06T19:05:00.200Z,6.9
2023-01-06T19:10:00.207Z,7.0
2023-01-06T19:15:00.230Z,7.0
2023-01-06T19:20:00.247Z,7.3
2023-01-06T19:25:00.203Z,7.4
2023-01-06T19:30:00.203Z,7.7
2023-01-06T19:35:00.195Z,7.8
2023-01-06T19:40:00.219Z,8.0
2023-01-06T19:45:00.242Z,8.0
2023-01-06T19:50:00.386Z,8.1
2023-01-06T19:55:00.200Z,8.4
2023-01-06T20:00:00.220Z,8.5
2023-01-06T20:05:00.217Z,8.8
2023-01-06T20:10:00.199Z,8.9
2023-01-06T20:15:00.189Z,9.0
2023-01-06T20:20:00.217Z,9.0
2023-01-06T20:25:00.208Z,9.1
2023-01-06T20:30:00.207Z,9.1
2023-01-06T20:35:00.212Z,9.1
2023-01-06T20:40:00.217Z,9.2
2023-01-06T20:45:00.219Z,9.2
2023-01-06T20:50:00.208Z,9.4
2023-01-06T20:55:00.229Z,9.5
2023-01-06T21:00:00.199Z,9.4
2023-01-06T21:05:00.225Z,9.3
2023-01-06T21:10:00.192Z,9.3
2023-01-06T21:15:00.234Z,9.3
2023-01-06T21:20:00.197Z,9.4
2023-01-06T21:25:00.217Z,9.4
2023-01-06T21:30:00.233Z,9.4
2023-01-06T21:35:00.209Z,9.5
2023-01-06T21:40:00.222Z,9.5
2023-01-06T21:45:00.195Z,9.5
2023-01-06T21:50:00.210Z,9.7
2023-01-06T21:55:00.228Z,9.6
2023-01-06T22:00:00.227Z,9.6
2023-01-06T22:05:00.197Z,9.6
2023-01-06T22:10:00.201Z,9.6
2023-01-06T22:15:00.224Z,9.7
2023-01-06T22:20:00.228Z,9.7
2023-01-06T22:25:00.202Z,9.7
2023-01-06T22:30:00.222Z,9.8
2023-01-06T22:35:00.218Z,9.8
2023-01-06T22:40:00.214Z,9.8
2023-01-06T22:45:00.219Z,9.8
2023-01-06T22:50:00.222Z,9.8
2023-01-06T23:00:00.678Z,9.7
2023-01-06T23:05:00.945Z,9.8
2023-01-06T23:10:00.680Z,9.8
2023-01-06T23:15:01.240Z,9.8
2023-01-06T23:20:00.966Z,9.7
2023-01-06T23:25:00.675Z,9.7
2023-01-06T23:30:00.662Z,9.7
2023-01-06T23:35:00.711Z,9.8
2023-01-06T23:40:00.692Z,9.6
2023-01-06T23:45:00.700Z,9.8
2023-01-06T23:50:00.663Z,9.7
2023-01-06T23:55:00.674Z,9.8
